OPRN/ISB METAR and TAF weather

Enter ICAO airport designator
Station Type Date Time Source
OPRN METAR 2019/06/18 11:00 UTC NOAA

OPRN 181100Z 18006KT 5000 HZ FEW040 41/23 Q0995 NOSIG


Station Type Date Time Source
OPRN Decoded METAR 2019/06/18 11:00 UTC NOAA

Islamabad Airport, Pakistan (OPRN) 33-37N 073-06E 508M
Jun 18, 2019 - 07:00 AM EDT / 2019.06.18 1100 UTC
Wind: from the S (180 degrees) at 7 MPH (6 KT):0
Visibility: 3 mile(s):0
Sky conditions: mostly clear
Weather: haze
Temperature: 105 F (41 C)
Heat index: 117.1 F (47.3 C):1
Dew Point: 73 F (23 C)
Relative Humidity: 36%
Pressure (altimeter): 29.38 in. Hg (0995 hPa)
ob: OPRN 181100Z 18006KT 5000 HZ FEW040 41/23 Q0995 NOSIG
cycle: 11

Station Type Date Time Source
OPRN TAF 2019/05/15 18:06 UTC NOAA

TAF OPRN 151530Z 1518/1624 13010KT 7000 SCT040 SCT100
TEMPO 1518/1521 13010G25KT 5000 VCTS FEW030TCU/CB SCT040 BKN100
BECMG 1603/1605 23010KT 9999 FEW040

Example: see airport list